createdAt,value
2023-02-12T00:03:59.718Z,21.23
2023-02-12T00:09:01.365Z,21.52
2023-02-12T00:14:03.364Z,19.02
2023-02-12T00:19:05.028Z,22.40
2023-02-12T00:24:06.588Z,28.48
2023-02-12T00:29:08.099Z,22.77
2023-02-12T00:34:10.478Z,22.70
2023-02-12T00:39:12.012Z,24.67
2023-02-12T00:44:13.432Z,26.73
2023-02-12T00:49:14.974Z,26.48
2023-02-12T00:54:16.441Z,21.02
2023-02-12T00:59:17.915Z,23.83
2023-02-12T01:04:19.392Z,21.90
2023-02-12T01:09:20.958Z,21.50
2023-02-12T01:14:22.456Z,19.23
2023-02-12T01:19:24.062Z,19.27
2023-02-12T01:24:25.564Z,20.38
2023-02-12T01:29:27.008Z,22.17
2023-02-12T01:34:28.475Z,19.27
2023-02-12T01:39:29.901Z,22.52
2023-02-12T01:44:32.801Z,22.88
2023-02-12T01:49:34.205Z,23.25
2023-02-12T01:54:36.057Z,22.45
2023-02-12T01:59:38.728Z,22.20
2023-02-12T02:04:48.437Z,19.20
2023-02-12T02:09:49.946Z,19.92
2023-02-12T02:14:53.175Z,19.77
2023-02-12T02:20:03.944Z,19.73
2023-02-12T02:25:14.402Z,21.17
2023-02-12T02:30:15.883Z,24.30
2023-02-12T02:35:17.488Z,20.58
2023-02-12T02:40:23.809Z,19.80
2023-02-12T02:45:27.820Z,19.02
2023-02-12T02:50:31.578Z,17.98
2023-02-12T02:55:36.891Z,14.35
2023-02-12T03:00:40.043Z,16.23
2023-02-12T03:05:47.384Z,16.98
2023-02-12T03:10:50.598Z,16.85
2023-02-12T03:16:04.813Z,17.23
2023-02-12T03:21:10.817Z,14.63
2023-02-12T03:26:23.604Z,15.70
2023-02-12T03:31:25.022Z,15.75
2023-02-12T03:36:44.855Z,18.83
2023-02-12T03:42:00.994Z,15.80
2023-02-12T03:47:20.615Z,17.98
2023-02-12T03:52:22.151Z,19.83
2023-02-12T03:57:30.614Z,19.90
2023-02-12T04:02:32.239Z,24.77
2023-02-12T04:07:35.260Z,23.92
2023-02-12T04:12:40.357Z,23.48
2023-02-12T04:18:02.054Z,21.73
2023-02-12T04:23:22.611Z,22.58
2023-02-12T04:28:43.627Z,22.63
2023-02-12T04:33:47.747Z,22.45
2023-02-12T04:38:58.798Z,22.80
2023-02-12T04:44:13.477Z,22.90
2023-02-12T04:49:19.060Z,26.15
2023-02-12T04:54:21.556Z,24.83
2023-02-12T05:04:41.953Z,28.63
2023-02-12T05:09:43.432Z,27.42
2023-02-12T05:14:44.838Z,29.98
2023-02-12T05:19:47.764Z,26.17
2023-02-12T05:24:49.244Z,30.95
2023-02-12T05:29:50.866Z,28.20
2023-02-12T05:34:52.322Z,29.02
2023-02-12T05:39:53.964Z,32.03
2023-02-12T05:44:55.404Z,29.35
2023-02-12T05:49:56.827Z,31.00
2023-02-12T05:54:58.288Z,30.70
2023-02-12T05:59:59.797Z,32.42
2023-02-12T06:05:01.273Z,31.65
2023-02-12T06:10:02.763Z,30.17
2023-02-12T06:15:04.330Z,32.78
2023-02-12T06:20:05.984Z,37.17
2023-02-12T06:25:07.475Z,33.08
2023-02-12T06:30:09.178Z,30.60
2023-02-12T06:35:10.639Z,31.00
2023-02-12T06:40:12.267Z,36.17
2023-02-12T06:45:13.729Z,33.00
2023-02-12T06:50:15.231Z,34.92
2023-02-12T06:55:16.851Z,36.90
2023-02-12T07:00:18.687Z,40.50
2023-02-12T07:05:20.385Z,34.00
2023-02-12T07:10:21.824Z,39.78
2023-02-12T07:15:23.356Z,37.47
2023-02-12T07:20:24.802Z,43.50
2023-02-12T07:25:26.293Z,34.90
2023-02-12T07:30:27.803Z,41.30
2023-02-12T07:35:29.260Z,41.40
2023-02-12T07:40:30.689Z,39.30
2023-02-12T07:45:32.135Z,46.80
2023-02-12T07:50:33.634Z,37.72
2023-02-12T07:55:35.083Z,39.80
2023-02-12T08:00:36.530Z,43.33
2023-02-12T08:05:38.013Z,37.95
2023-02-12T08:10:39.673Z,40.47
2023-02-12T08:15:41.179Z,41.78
2023-02-12T08:20:42.677Z,38.35
2023-02-12T08:25:44.176Z,37.17
2023-02-12T08:30:45.697Z,36.92
2023-02-12T08:35:47.136Z,39.83
2023-02-12T08:40:48.616Z,37.75
2023-02-12T08:45:50.165Z,38.85
2023-02-12T08:50:51.652Z,33.30
2023-02-12T08:55:53.444Z,35.13
2023-02-12T09:00:55.164Z,34.95
2023-02-12T09:05:57.035Z,37.65
2023-02-12T09:10:58.606Z,34.58
2023-02-12T09:16:00.899Z,29.00
2023-02-12T09:21:09.628Z,29.08
2023-02-12T09:26:12.487Z,28.38
2023-02-12T09:31:15.778Z,25.92
2023-02-12T09:36:17.541Z,26.85
2023-02-12T09:41:30.884Z,24.70
2023-02-12T09:46:35.084Z,24.98
2023-02-12T09:51:38.146Z,22.00
2023-02-12T09:56:40.355Z,21.42
2023-02-12T10:01:41.826Z,18.27
2023-02-12T10:06:48.605Z,22.85
2023-02-12T10:12:03.819Z,21.75
2023-02-12T10:17:08.250Z,18.85
2023-02-12T10:22:18.805Z,19.10
2023-02-12T10:27:23.429Z,20.88
2023-02-12T10:32:27.783Z,20.48
2023-02-12T10:37:48.191Z,19.13
2023-02-12T10:42:51.755Z,18.27
2023-02-12T10:48:01.865Z,16.58
2023-02-12T10:53:06.312Z,17.02
2023-02-12T10:58:17.713Z,15.48
2023-02-12T11:03:21.477Z,15.90
2023-02-12T11:08:37.631Z,17.40
2023-02-12T11:13:41.647Z,15.55
2023-02-12T11:18:43.252Z,15.55
2023-02-12T11:23:46.246Z,18.95
2023-02-12T11:28:55.175Z,13.57
2023-02-12T11:34:08.852Z,12.90
2023-02-12T11:39:24.849Z,14.55
2023-02-12T11:44:32.138Z,13.75
2023-02-12T11:49:34.612Z,15.65
2023-02-12T11:54:41.992Z,16.25
2023-02-12T11:59:46.063Z,15.10
2023-02-12T12:04:49.685Z,14.13
2023-02-12T12:10:03.675Z,14.18
2023-02-12T12:15:34.319Z,13.45
2023-02-12T12:20:39.396Z,14.15
2023-02-12T12:25:43.820Z,14.80
2023-02-12T12:30:58.310Z,15.10
2023-02-12T12:36:18.802Z,16.10
2023-02-12T12:41:29.304Z,16.95
2023-02-12T12:46:30.826Z,15.52
2023-02-12T12:51:45.192Z,13.70
2023-02-12T12:56:49.533Z,15.20
2023-02-12T13:01:54.147Z,14.93
2023-02-12T13:06:55.601Z,14.77
2023-02-12T13:11:57.206Z,14.32
2023-02-12T13:17:07.182Z,15.60
2023-02-12T13:22:19.224Z,14.13
2023-02-12T13:27:23.064Z,16.17
2023-02-12T13:32:32.906Z,17.33
2023-02-12T13:42:49.088Z,18.45
2023-02-12T13:47:56.761Z,19.13
2023-02-12T13:53:17.072Z,17.10
2023-02-12T13:58:39.940Z,22.70
2023-02-12T14:03:41.870Z,19.27
2023-02-12T14:09:03.588Z,17.67
2023-02-12T14:14:06.279Z,21.55
2023-02-12T14:19:26.921Z,18.60
2023-02-12T14:24:37.220Z,17.75
2023-02-12T14:29:38.700Z,22.08
2023-02-12T14:34:40.224Z,22.98
2023-02-12T14:39:41.670Z,18.58
2023-02-12T14:44:46.008Z,18.13
2023-02-12T14:49:48.924Z,21.15
2023-02-12T14:54:52.573Z,19.70
2023-02-12T15:00:13.996Z,18.80
2023-02-12T15:05:18.798Z,19.48
2023-02-12T15:10:21.683Z,21.40
2023-02-12T15:15:33.722Z,23.40
2023-02-12T15:20:46.480Z,22.60
2023-02-12T15:25:50.571Z,26.88
2023-02-12T15:30:53.203Z,22.50
2023-02-12T15:35:55.371Z,22.83
2023-02-12T15:46:18.347Z,21.83
2023-02-12T15:51:39.069Z,24.38
2023-02-12T15:56:41.302Z,27.50
2023-02-12T16:01:52.075Z,26.45
2023-02-12T16:06:53.998Z,26.05
2023-02-12T16:11:56.259Z,24.88
2023-02-12T16:16:59.190Z,33.83
2023-02-12T16:22:06.230Z,30.45
2023-02-12T16:27:25.878Z,27.90
2023-02-12T16:32:37.813Z,27.63
2023-02-12T16:37:39.318Z,28.65
2023-02-12T16:42:55.969Z,25.42
2023-02-12T16:47:57.427Z,26.75
2023-02-12T16:53:02.619Z,27.92
2023-02-12T16:58:04.108Z,29.27
2023-02-12T17:03:05.673Z,32.80
2023-02-12T17:08:12.889Z,75.63
2023-02-12T17:13:14.851Z,94.03
2023-02-12T17:18:18.130Z,65.85
2023-02-12T17:23:20.057Z,39.45
2023-02-12T17:28:23.129Z,35.10
2023-02-12T17:33:24.762Z,32.90
2023-02-12T17:38:26.405Z,35.78
2023-02-12T17:43:27.846Z,36.42
2023-02-12T17:48:29.581Z,31.75
2023-02-12T17:53:31.027Z,33.45
2023-02-12T17:58:32.498Z,32.42
2023-02-12T18:03:34.207Z,34.15
2023-02-12T18:08:35.869Z,35.28
2023-02-12T18:13:37.975Z,35.13
2023-02-12T18:18:42.972Z,31.88
2023-02-12T18:24:03.298Z,30.27
2023-02-12T18:29:05.300Z,34.05
2023-02-12T18:34:06.940Z,35.15
2023-02-12T18:39:08.491Z,35.10
2023-02-12T18:44:10.071Z,52.92
2023-02-12T18:49:11.979Z,42.17
2023-02-12T18:54:13.729Z,39.42
2023-02-12T18:59:15.937Z,40.03
2023-02-12T19:04:19.627Z,38.85
2023-02-12T19:09:24.264Z,37.70
2023-02-12T19:14:26.529Z,38.80
2023-02-12T19:19:28.123Z,43.10
2023-02-12T19:24:41.058Z,40.63
2023-02-12T19:29:47.624Z,41.60
2023-02-12T19:34:49.123Z,35.92
2023-02-12T19:39:50.688Z,37.38
2023-02-12T19:44:52.175Z,37.95
2023-02-12T19:49:53.985Z,36.28
2023-02-12T19:54:55.490Z,41.13
2023-02-12T19:59:56.963Z,63.13
2023-02-12T20:04:58.487Z,57.05
2023-02-12T20:10:00.079Z,56.45
2023-02-12T20:15:04.281Z,43.78
2023-02-12T20:20:06.468Z,40.10
2023-02-12T20:25:08.261Z,39.42
2023-02-12T20:30:09.960Z,41.42
2023-02-12T20:35:14.748Z,39.50
2023-02-12T20:40:16.344Z,41.03
2023-02-12T20:45:17.885Z,40.08
2023-02-12T20:50:19.393Z,39.90
2023-02-12T20:55:21.000Z,38.92
2023-02-12T21:00:22.509Z,41.33
2023-02-12T21:05:24.057Z,43.63
2023-02-12T21:10:26.132Z,46.30
2023-02-12T21:15:28.303Z,45.15
2023-02-12T21:20:29.787Z,38.35
2023-02-12T21:25:31.206Z,42.28
2023-02-12T21:30:32.680Z,42.55
2023-02-12T21:35:35.396Z,39.83
2023-02-12T21:40:36.814Z,42.78
2023-02-12T21:50:53.709Z,38.72
2023-02-12T21:55:55.583Z,40.25
2023-02-12T22:00:57.726Z,40.70
2023-02-12T22:06:00.401Z,37.05
2023-02-12T22:11:04.424Z,36.15
2023-02-12T22:16:12.098Z,46.30
2023-02-12T22:21:14.819Z,36.13
2023-02-12T22:26:36.726Z,41.03
2023-02-12T22:31:39.171Z,41.35
2023-02-12T22:36:41.245Z,44.90
2023-02-12T22:41:42.805Z,47.03
2023-02-12T22:46:44.790Z,50.55
2023-02-12T22:51:46.280Z,51.53
2023-02-12T22:56:51.187Z,49.50
2023-02-12T23:01:52.772Z,51.90
2023-02-12T23:06:54.267Z,52.17
2023-02-12T23:11:55.754Z,58.88
2023-02-12T23:16:57.270Z,58.30
2023-02-12T23:21:58.836Z,57.97
2023-02-12T23:27:00.274Z,60.08
2023-02-12T23:32:01.888Z,56.80
2023-02-12T23:37:03.407Z,59.58
2023-02-12T23:42:05.138Z,59.05
2023-02-12T23:47:06.645Z,59.88
2023-02-12T23:52:08.202Z,55.83
2023-02-12T23:57:09.670Z,57.50
